Quata, Brazil
Current Conditions -  °F | °C
As of 3:00 PM on Thursday 23 Oct 2014 (Local Time) from SBDN Reporting Station
Clear Clear  
Wind Chill: 90°   Ceiling: Unl
Heat Index: 90°   Visibility: 6mi
Dew Point: 61°   Wind: 8mph
Humidity: 38%   Direction: 360°N
Pressure: 29.94"   Gusts: NA
Location:  22.25°S, 50.7°W
Report Text: SBDN 231700Z 36007KT CAVOK 32/16 Q1014
Loading
Personal Weather Stations






























Interactive Weather Map New forecast layout! Learn more

10-Day Weather Forecast

Advertisements
Track Severe Weather on mobile